Time;durP1;ratioP1;P1;durP2;ratioP2;P2;SDS_P1;SDS_P2;PMS_P1;PMS_P2;Temp;Humidity;BMP_temperature;BMP_pressure;BME280_temperature;BME280_humidity;BME280_pressure;Samples;Min_cycle;Max_cycle;Signal;HPM_P1;HPM_P2
2024/03/21 00:00:21;;;;;;;15.25;13.52;;;11.90;99.90;;;;;;5031681;28;20060;-86
2024/03/21 00:02:47;;;;;;;14.35;12.90;;;11.90;99.90;;;;;;5019073;28;20037;-86
2024/03/21 00:05:16;;;;;;;15.32;13.73;;;11.90;99.90;;;;;;5028985;28;20055;-86
2024/03/21 00:07:45;;;;;;;14.00;12.57;;;11.90;99.90;;;;;;5021228;28;20044;-86
2024/03/21 00:10:13;;;;;;;14.40;12.90;;;11.90;99.90;;;;;;5031183;28;20060;-86
2024/03/21 00:12:42;;;;;;;14.23;12.73;;;11.90;99.90;;;;;;5045156;28;20037;-86
2024/03/21 00:15:10;;;;;;;15.82;14.05;;;11.90;99.90;;;;;;5029240;28;20044;-87
2024/03/21 00:17:36;;;;;;;14.05;12.55;;;11.90;99.90;;;;;;5036552;28;20048;-87
2024/03/21 00:20:05;;;;;;;14.95;13.30;;;11.80;99.90;;;;;;5018137;28;20062;-87
2024/03/21 00:22:31;;;;;;;15.73;14.05;;;11.90;99.90;;;;;;5060032;28;20155;-86
2024/03/21 00:24:57;;;;;;;13.73;12.13;;;11.80;99.90;;;;;;5062589;28;20128;-86
2024/03/21 00:27:22;;;;;;;15.02;11.93;;;11.80;99.90;;;;;;5050285;28;20037;-85
2024/03/21 00:29:49;;;;;;;12.82;11.52;;;11.80;99.90;;;;;;5050264;28;20496;-86
2024/03/21 00:32:16;;;;;;;15.40;12.80;;;11.80;99.90;;;;;;5067527;28;20076;-86
2024/03/21 00:34:42;;;;;;;14.57;12.75;;;11.80;99.90;;;;;;5046969;28;20045;-86
2024/03/21 00:37:08;;;;;;;16.52;13.77;;;11.80;99.90;;;;;;5050359;28;20873;-86
2024/03/21 00:39:33;;;;;;;17.73;14.15;;;11.80;99.90;;;;;;5065530;28;20048;-86
2024/03/21 00:41:59;;;;;;;15.60;13.82;;;11.70;99.90;;;;;;5050071;28;20043;-86
2024/03/21 00:44:25;;;;;;;20.08;14.27;;;11.70;99.90;;;;;;5048613;28;20038;-86
2024/03/21 00:46:51;;;;;;;17.27;14.00;;;11.70;99.90;;;;;;5049955;28;20056;-87
2024/03/21 00:49:17;;;;;;;16.23;14.00;;;11.70;99.90;;;;;;5048614;28;20044;-87
2024/03/21 00:51:46;;;;;;;20.70;17.05;;;11.70;99.90;;;;;;5049225;28;20377;-86
2024/03/21 00:54:12;;;;;;;17.77;15.65;;;11.60;99.90;;;;;;5066521;28;20044;-80
2024/03/21 00:56:38;;;;;;;23.92;20.40;;;11.60;99.90;;;;;;5044095;28;20092;-80
2024/03/21 00:59:06;;;;;;;27.35;22.02;;;11.60;99.90;;;;;;5044494;28;20069;-80
2024/03/21 01:01:31;;;;;;;26.15;21.70;;;11.60;99.90;;;;;;5061597;28;20476;-81
2024/03/21 01:03:57;;;;;;;25.40;21.90;;;11.60;99.90;;;;;;5080875;28;20045;-81
2024/03/21 01:06:24;;;;;;;29.75;23.85;;;11.60;99.90;;;;;;5048055;28;20531;-80
2024/03/21 01:08:49;;;;;;;32.20;23.63;;;11.60;99.90;;;;;;5061151;28;20064;-80
2024/03/21 01:11:15;;;;;;;29.75;23.42;;;11.60;99.90;;;;;;5063830;28;20075;-80
2024/03/21 01:13:41;;;;;;;31.02;24.23;;;11.60;99.90;;;;;;5063708;28;20040;-79
2024/03/21 01:16:11;;;;;;;29.88;24.52;;;11.70;99.90;;;;;;5061371;28;20103;-87
2024/03/21 01:18:38;;;;;;;28.23;23.85;;;11.70;99.90;;;;;;5052863;28;20412;-86
2024/03/21 01:21:05;;;;;;;31.45;24.70;;;11.70;99.90;;;;;;5061372;28;20110;-87
2024/03/21 01:23:32;;;;;;;32.10;25.13;;;11.70;99.90;;;;;;5063829;28;20037;-87
2024/03/21 01:26:04;;;;;;;30.13;23.77;;;11.60;99.90;;;;;;5046581;28;20443;-87
2024/03/21 01:28:30;;;;;;;26.83;22.80;;;11.60;99.90;;;;;;5047451;28;20075;-87
2024/03/21 01:31:00;;;;;;;28.95;23.90;;;11.70;99.90;;;;;;5063840;28;20052;-87
2024/03/21 01:33:27;;;;;;;28.90;23.33;;;11.60;99.90;;;;;;5048032;28;20041;-87
2024/03/21 01:35:53;;;;;;;29.33;22.65;;;11.60;99.90;;;;;;5049235;28;20033;-86
2024/03/21 01:38:19;;;;;;;28.25;22.73;;;11.60;99.90;;;;;;5049310;28;20109;-87
2024/03/21 01:40:44;;;;;;;30.95;23.75;;;11.60;99.90;;;;;;5041618;28;20070;-88
2024/03/21 01:43:22;;;;;;;25.80;22.73;;;11.60;99.90;;;;;;5062958;28;20040;-86
2024/03/21 01:46:15;;;;;;;28.67;24.08;;;11.60;99.90;;;;;;5062096;28;20497;-86
2024/03/21 01:48:48;;;;;;;29.15;23.40;;;11.60;99.90;;;;;;5051899;28;20048;-85
2024/03/21 01:51:23;;;;;;;31.23;24.83;;;11.60;99.90;;;;;;5043420;28;20076;-85
2024/03/21 01:53:51;;;;;;;32.22;25.73;;;11.50;99.90;;;;;;5060302;28;20612;-83
2024/03/21 01:56:17;;;;;;;31.55;25.13;;;11.50;99.90;;;;;;5063471;28;20056;-85
2024/03/21 01:58:43;;;;;;;29.85;24.60;;;11.40;99.90;;;;;;5046534;28;20492;-85
2024/03/21 02:01:19;;;;;;;32.17;24.88;;;11.40;99.90;;;;;;5038836;28;20047;-83
2024/03/21 02:03:45;;;;;;;34.50;26.30;;;11.40;99.90;;;;;;5044714;28;20102;-84
2024/03/21 02:06:11;;;;;;;33.70;24.48;;;11.30;99.90;;;;;;5046426;28;20627;-83
2024/03/21 02:08:40;;;;;;;35.15;26.65;;;11.30;99.90;;;;;;5047899;28;20044;-84
2024/03/21 02:11:06;;;;;;;32.35;24.40;;;11.30;99.90;;;;;;5060911;28;20048;-84
2024/03/21 02:13:31;;;;;;;37.33;28.00;;;11.20;99.90;;;;;;5058546;28;20059;-84
2024/03/21 02:15:57;;;;;;;35.60;26.50;;;11.20;99.90;;;;;;5069262;28;20044;-84
2024/03/21 02:18:23;;;;;;;38.05;27.48;;;11.20;99.90;;;;;;5047052;28;20044;-84
2024/03/21 02:20:52;;;;;;;33.97;24.55;;;11.20;99.90;;;;;;5045795;28;20040;-83
2024/03/21 02:23:17;;;;;;;31.38;23.00;;;11.20;99.90;;;;;;5074496;28;20045;-85
2024/03/21 02:25:43;;;;;;;32.25;23.25;;;11.10;99.90;;;;;;5061018;28;20045;-84
2024/03/21 02:28:09;;;;;;;30.85;22.70;;;11.10;99.90;;;;;;5044865;28;20132;-83
2024/03/21 02:30:36;;;;;;;31.27;23.75;;;11.10;99.90;;;;;;5040958;28;20125;-84
2024/03/21 02:33:02;;;;;;;35.67;23.92;;;11.00;99.90;;;;;;5058813;28;20049;-84
2024/03/21 02:35:28;;;;;;;31.77;23.20;;;11.00;99.90;;;;;;5042540;28;20123;-83
2024/03/21 02:37:54;;;;;;;35.97;24.75;;;11.00;99.90;;;;;;5046493;28;20182;-82
2024/03/21 02:40:20;;;;;;;36.80;23.15;;;11.00;99.90;;;;;;5039630;28;20090;-86
2024/03/21 02:42:47;;;;;;;32.65;22.48;;;10.90;99.90;;;;;;5057780;28;20048;-85
2024/03/21 02:45:13;;;;;;;32.47;23.17;;;10.90;99.90;;;;;;5046351;28;20032;-83
2024/03/21 02:47:38;;;;;;;28.00;21.02;;;10.90;99.90;;;;;;5046334;28;20518;-90
2024/03/21 02:50:05;;;;;;;23.52;16.55;;;10.90;99.90;;;;;;5079404;28;20496;-83
2024/03/21 02:52:31;;;;;;;17.63;14.35;;;10.80;99.90;;;;;;5046008;28;20563;-83
2024/03/21 02:54:57;;;;;;;16.10;13.23;;;10.80;99.90;;;;;;5046291;28;20131;-84
2024/03/21 02:57:22;;;;;;;14.88;12.43;;;10.70;99.90;;;;;;5058988;28;20129;-82
2024/03/21 02:59:48;;;;;;;13.90;11.93;;;10.60;99.90;;;;;;5045732;28;20067;-83
2024/03/21 03:02:15;;;;;;;15.13;12.02;;;10.50;99.90;;;;;;5047527;28;20134;-83
2024/03/21 03:04:41;;;;;;;13.40;11.95;;;10.50;99.90;;;;;;5046954;28;20044;-84
2024/03/21 03:07:07;;;;;;;14.98;12.23;;;10.40;99.90;;;;;;5057873;28;20037;-82
2024/03/21 03:09:33;;;;;;;15.05;12.68;;;10.40;99.90;;;;;;5043534;28;20119;-83
2024/03/21 03:11:59;;;;;;;17.00;13.43;;;10.30;99.90;;;;;;5047827;28;20552;-82
2024/03/21 03:14:25;;;;;;;13.32;11.93;;;10.30;99.90;;;;;;5044947;28;20033;-83
2024/03/21 03:16:51;;;;;;;14.75;13.25;;;10.20;99.90;;;;;;5067272;28;20047;-82
2024/03/21 03:19:17;;;;;;;15.57;14.00;;;10.30;99.90;;;;;;5060065;28;20032;-88
2024/03/21 03:21:43;;;;;;;15.77;14.15;;;10.10;99.90;;;;;;5048543;28;20041;-83
2024/03/21 03:24:08;;;;;;;17.35;15.60;;;10.00;99.90;;;;;;5059368;28;20036;-83
2024/03/21 03:26:34;;;;;;;18.52;16.63;;;9.90;99.90;;;;;;5060662;28;21188;-83
2024/03/21 03:29:00;;;;;;;17.23;15.52;;;9.80;99.90;;;;;;5047155;28;20075;-83
2024/03/21 03:31:26;;;;;;;17.50;15.75;;;9.70;99.90;;;;;;5062978;28;20048;-83
2024/03/21 03:36:39;;;;;;;21.77;19.52;;;9.60;99.90;;;;;;5062710;28;20131;-83
2024/03/21 03:39:06;;;;;;;21.33;19.20;;;9.50;99.90;;;;;;5060239;28;20064;-85
2024/03/21 03:41:32;;;;;;;25.33;22.42;;;9.40;99.90;;;;;;5044764;28;20133;-85
2024/03/21 03:43:58;;;;;;;27.05;23.48;;;9.40;99.90;;;;;;5063425;28;20055;-86
2024/03/21 03:46:24;;;;;;;29.40;23.05;;;9.30;99.90;;;;;;5075814;28;20044;-82
2024/03/21 03:48:49;;;;;;;25.45;22.40;;;9.20;99.90;;;;;;5044687;28;20064;-85
2024/03/21 03:51:15;;;;;;;26.02;22.10;;;9.10;99.90;;;;;;5054718;28;20044;-82
2024/03/21 03:53:41;;;;;;;23.08;20.55;;;9.10;99.90;;;;;;5044694;28;20416;-82
2024/03/21 03:56:07;;;;;;;22.88;19.00;;;9.00;99.90;;;;;;5060679;28;20045;-84
2024/03/21 03:58:32;;;;;;;19.98;17.45;;;8.90;99.90;;;;;;5048633;28;20033;-83
2024/03/21 04:01:00;;;;;;;20.98;17.15;;;8.90;99.90;;;;;;5048586;28;20119;-83
2024/03/21 04:03:28;;;;;;;20.58;16.83;;;8.80;99.90;;;;;;5065705;28;20056;-83
2024/03/21 04:06:03;;;;;;;20.40;15.48;;;8.70;99.90;;;;;;5046746;28;20045;-83
2024/03/21 04:08:29;;;;;;;23.48;17.48;;;8.70;99.90;;;;;;5047945;28;20036;-82
2024/03/21 04:10:56;;;;;;;22.50;17.45;;;8.60;99.90;;;;;;5062092;28;20135;-83
2024/03/21 04:13:22;;;;;;;20.55;15.18;;;8.60;99.90;;;;;;5049825;28;20114;-82
2024/03/21 04:15:55;;;;;;;20.77;14.13;;;8.60;99.90;;;;;;5065494;28;20037;-83
2024/03/21 04:18:22;;;;;;;20.48;14.32;;;8.60;99.90;;;;;;5046632;28;20090;-83
2024/03/21 04:20:53;;;;;;;18.45;13.95;;;8.50;99.90;;;;;;5050392;28;20656;-84
2024/03/21 04:23:19;;;;;;;24.80;15.88;;;8.50;99.90;;;;;;5048824;28;20056;-83
2024/03/21 04:25:45;;;;;;;24.00;15.40;;;8.30;99.90;;;;;;5063109;28;20049;-82
2024/03/21 04:28:11;;;;;;;18.42;14.38;;;8.40;99.90;;;;;;5066131;28;20067;-83
2024/03/21 04:30:36;;;;;;;20.33;12.93;;;8.40;99.90;;;;;;5062539;28;20043;-84
2024/03/21 04:33:03;;;;;;;15.95;11.95;;;8.40;99.90;;;;;;5047727;28;20044;-84
2024/03/21 04:35:30;;;;;;;18.08;10.43;;;8.30;99.90;;;;;;5062844;28;20390;-83
2024/03/21 04:37:56;;;;;;;16.20;8.85;;;8.30;99.90;;;;;;5049652;28;20109;-82
2024/03/21 04:40:22;;;;;;;15.30;9.75;;;8.30;99.90;;;;;;5061381;28;20048;-84
2024/03/21 04:42:50;;;;;;;16.65;10.30;;;8.20;99.90;;;;;;5065260;28;20053;-83
2024/03/21 04:45:17;;;;;;;16.10;9.35;;;8.20;99.90;;;;;;5049414;28;20131;-85
2024/03/21 04:47:44;;;;;;;15.55;9.20;;;8.20;99.90;;;;;;5044625;28;20068;-83
2024/03/21 04:50:10;;;;;;;16.48;8.45;;;8.10;99.90;;;;;;5062010;28;20053;-82
2024/03/21 04:52:36;;;;;;;16.25;8.75;;;8.10;99.90;;;;;;5049277;28;20044;-84
2024/03/21 04:55:01;;;;;;;15.90;7.93;;;8.10;99.90;;;;;;5064742;28;20098;-84
2024/03/21 04:57:27;;;;;;;14.07;8.05;;;8.00;99.90;;;;;;5043069;28;20036;-83
2024/03/21 04:59:54;;;;;;;15.55;8.57;;;8.00;99.90;;;;;;5048344;28;20439;-83
2024/03/21 05:02:20;;;;;;;22.63;8.68;;;8.00;99.90;;;;;;5056375;28;20044;-83
2024/03/21 05:04:46;;;;;;;17.17;8.23;;;8.00;99.90;;;;;;5080739;28;20102;-84
2024/03/21 05:07:12;;;;;;;15.90;6.97;;;8.00;99.90;;;;;;5044129;28;20037;-83
2024/03/21 05:09:38;;;;;;;19.10;8.13;;;8.00;99.90;;;;;;5043901;28;20113;-83
2024/03/21 05:12:04;;;;;;;19.05;7.45;;;7.90;99.90;;;;;;5059987;28;20041;-83
2024/03/21 05:14:33;;;;;;;15.57;7.43;;;8.00;99.90;;;;;;5057984;28;20098;-82
2024/03/21 05:17:02;;;;;;;18.35;7.00;;;8.00;99.90;;;;;;5076228;28;20048;-83
2024/03/21 05:19:28;;;;;;;15.65;6.07;;;7.90;99.90;;;;;;5063659;28;20095;-84
2024/03/21 05:21:54;;;;;;;16.73;5.30;;;8.00;99.90;;;;;;5058940;28;20040;-87
2024/03/21 05:24:23;;;;;;;10.65;3.97;;;8.00;99.90;;;;;;5052472;28;20040;-83
2024/03/21 05:26:52;;;;;;;9.75;3.97;;;7.90;99.90;;;;;;5045072;28;20408;-83
2024/03/21 05:29:18;;;;;;;10.02;3.42;;;7.90;99.90;;;;;;5066278;28;20047;-85
2024/03/21 05:31:44;;;;;;;10.32;3.28;;;7.90;99.90;;;;;;5044380;28;20052;-84
2024/03/21 05:34:10;;;;;;;9.95;4.40;;;7.80;99.90;;;;;;5048832;28;20635;-86
2024/03/21 05:36:36;;;;;;;11.57;3.17;;;7.80;99.90;;;;;;5061565;28;20056;-83
2024/03/21 05:39:03;;;;;;;8.95;2.78;;;7.80;99.90;;;;;;5056179;28;20052;-83
2024/03/21 05:41:32;;;;;;;9.07;3.60;;;7.70;99.90;;;;;;5058319;28;20048;-84
2024/03/21 05:43:58;;;;;;;7.93;2.88;;;7.70;99.90;;;;;;5054715;28;20028;-83
2024/03/21 05:46:26;;;;;;;9.48;3.72;;;7.80;99.90;;;;;;5046501;28;20531;-83
2024/03/21 05:48:56;;;;;;;9.57;3.22;;;7.70;99.90;;;;;;5049603;28;20057;-83
2024/03/21 05:51:22;;;;;;;12.90;3.78;;;7.80;99.90;;;;;;5051117;28;20486;-83
2024/03/21 05:53:48;;;;;;;10.02;3.42;;;7.80;99.90;;;;;;5045169;28;20111;-83
2024/03/21 05:56:15;;;;;;;9.23;3.35;;;7.70;99.90;;;;;;5053673;28;20060;-83
2024/03/21 05:58:43;;;;;;;11.32;4.15;;;7.80;99.90;;;;;;5040796;28;20053;-83
2024/03/21 06:03:41;;;;;;;9.45;3.47;;;7.80;99.90;;;;;;5069028;28;20194;-80
2024/03/21 06:06:10;;;;;;;9.45;3.63;;;7.80;99.90;;;;;;5049538;28;20044;-80
2024/03/21 06:08:36;;;;;;;8.25;3.25;;;7.80;99.90;;;;;;5051385;28;20037;-80
2024/03/21 06:11:03;;;;;;;10.27;3.42;;;7.80;99.90;;;;;;5057346;28;20057;-80
2024/03/21 06:13:32;;;;;;;7.90;3.13;;;7.90;99.90;;;;;;5062592;28;20992;-79
2024/03/21 06:15:58;;;;;;;9.20;3.17;;;7.90;99.90;;;;;;5041424;28;20496;-80
2024/03/21 06:18:24;;;;;;;9.25;3.70;;;7.90;99.90;;;;;;5044069;28;20059;-79
2024/03/21 06:20:50;;;;;;;8.68;3.65;;;7.90;99.90;;;;;;5047658;28;20037;-80
2024/03/21 06:23:16;;;;;;;10.55;4.32;;;7.90;99.90;;;;;;5043187;28;20056;-79
2024/03/21 06:25:42;;;;;;;9.55;3.50;;;7.90;99.90;;;;;;5045587;28;20068;-80
2024/03/21 06:28:08;;;;;;;6.90;3.25;;;7.90;99.90;;;;;;5058076;28;20131;-79
2024/03/21 06:30:35;;;;;;;9.05;3.30;;;8.00;99.90;;;;;;5061367;28;20094;-80
2024/03/21 06:33:01;;;;;;;8.43;3.17;;;8.00;99.90;;;;;;5059563;28;20482;-79
2024/03/21 06:35:27;;;;;;;7.78;2.92;;;8.00;99.90;;;;;;5062440;28;20040;-79
2024/03/21 06:37:54;;;;;;;9.48;3.67;;;8.10;99.90;;;;;;5060746;28;20131;-79
2024/03/21 06:40:21;;;;;;;9.38;3.45;;;8.10;99.90;;;;;;5044264;28;20037;-79
2024/03/21 06:42:46;;;;;;;11.73;6.78;;;8.10;99.90;;;;;;5046870;28;20078;-84
2024/03/21 06:45:12;;;;;;;19.08;10.63;;;8.10;99.90;;;;;;5060950;28;20044;-79
2024/03/21 06:47:42;;;;;;;28.27;18.55;;;8.10;99.90;;;;;;5057312;28;20123;-78
2024/03/21 06:50:12;;;;;;;18.50;10.63;;;8.30;99.90;;;;;;5043832;28;20729;-78
2024/03/21 06:52:38;;;;;;;13.98;5.90;;;8.20;99.90;;;;;;5040749;28;20135;-82
2024/03/21 06:55:12;;;;;;;12.38;4.65;;;8.20;99.90;;;;;;5061180;28;20136;-85
2024/03/21 06:57:41;;;;;;;9.82;3.28;;;8.20;99.90;;;;;;5043332;28;20102;-82
2024/03/21 07:00:14;;;;;;;10.68;3.42;;;8.30;99.90;;;;;;5059577;28;20136;-79
2024/03/21 07:02:40;;;;;;;10.57;3.33;;;8.30;99.90;;;;;;5046331;28;20064;-84
2024/03/21 07:05:08;;;;;;;11.02;3.40;;;8.30;99.90;;;;;;5047566;28;20135;-83
2024/03/21 07:07:34;;;;;;;9.80;4.88;;;8.30;99.90;;;;;;5044750;28;20448;-84
2024/03/21 07:10:00;;;;;;;8.57;4.18;;;8.30;99.90;;;;;;5047883;28;20036;-82
2024/03/21 07:12:26;;;;;;;9.20;3.85;;;8.30;99.90;;;;;;5045591;28;20098;-83
2024/03/21 07:14:53;;;;;;;9.95;3.78;;;8.30;99.90;;;;;;5049762;28;20455;-83
2024/03/21 07:17:19;;;;;;;6.97;4.00;;;8.40;99.90;;;;;;5044507;28;20522;-84
2024/03/21 07:19:45;;;;;;;8.55;4.10;;;8.30;99.90;;;;;;5067093;28;20098;-83
2024/03/21 07:22:11;;;;;;;6.90;3.45;;;8.30;99.90;;;;;;5072811;28;20040;-84
2024/03/21 07:24:40;;;;;;;7.93;3.30;;;8.30;99.90;;;;;;5081518;28;20130;-84
2024/03/21 07:27:06;;;;;;;7.43;3.08;;;8.30;99.90;;;;;;5044437;28;20546;-84
2024/03/21 07:29:32;;;;;;;8.98;3.60;;;8.30;99.90;;;;;;5044804;28;20048;-83
2024/03/21 07:31:59;;;;;;;8.65;3.22;;;8.30;99.90;;;;;;5063957;28;20467;-83
2024/03/21 07:34:25;;;;;;;8.05;3.38;;;8.30;99.90;;;;;;5064925;28;20574;-84
2024/03/21 07:36:51;;;;;;;9.95;3.80;;;8.40;99.90;;;;;;5049810;28;20052;-83
2024/03/21 07:39:20;;;;;;;8.02;3.28;;;8.40;99.90;;;;;;5051640;28;20099;-85
2024/03/21 07:41:49;;;;;;;9.20;3.63;;;8.50;99.90;;;;;;5063159;28;20137;-84
2024/03/21 07:44:16;;;;;;;11.60;3.40;;;8.40;99.90;;;;;;5048990;28;20143;-85
2024/03/21 07:46:42;;;;;;;10.77;3.13;;;8.40;99.90;;;;;;5046382;28;20044;-85
2024/03/21 07:49:09;;;;;;;7.65;3.00;;;8.30;99.90;;;;;;5046464;28;20085;-84
2024/03/21 07:51:38;;;;;;;15.20;3.75;;;8.30;99.90;;;;;;5046399;28;20068;-85
2024/03/21 07:54:04;;;;;;;9.65;3.30;;;8.30;99.90;;;;;;5063963;28;20051;-84
2024/03/21 07:56:30;;;;;;;8.05;3.00;;;8.30;99.90;;;;;;5046416;28;20040;-85
2024/03/21 07:58:56;;;;;;;9.60;3.33;;;8.30;99.90;;;;;;5067720;28;20036;-84
2024/03/21 08:01:23;;;;;;;9.27;3.05;;;8.20;99.90;;;;;;5076813;28;20051;-84
2024/03/21 08:03:50;;;;;;;9.82;3.35;;;8.30;99.90;;;;;;5085663;28;20041;-83
2024/03/21 08:06:16;;;;;;;9.70;3.10;;;8.20;99.90;;;;;;5049103;28;20610;-85
2024/03/21 08:08:43;;;;;;;11.80;3.65;;;8.20;99.90;;;;;;5065805;28;20044;-83
2024/03/21 08:11:10;;;;;;;9.02;3.33;;;8.20;99.90;;;;;;5044649;28;20480;-84
2024/03/21 08:13:36;;;;;;;10.88;3.47;;;8.10;99.90;;;;;;5047218;28;20079;-84
2024/03/21 08:16:02;;;;;;;12.52;3.33;;;8.10;99.90;;;;;;5047096;28;20072;-84
2024/03/21 08:18:28;;;;;;;9.63;3.85;;;8.20;99.90;;;;;;5049941;28;20029;-84
2024/03/21 08:20:55;;;;;;;8.30;3.72;;;8.20;99.90;;;;;;5048578;28;20040;-84
2024/03/21 08:23:21;;;;;;;12.13;4.22;;;8.20;99.90;;;;;;5062449;28;20106;-84
2024/03/21 08:25:47;;;;;;;12.95;3.80;;;8.30;99.90;;;;;;5065171;28;20595;-84
2024/03/21 08:28:13;;;;;;;8.52;3.78;;;8.30;99.90;;;;;;5045832;28;20903;-86
2024/03/21 08:30:47;;;;;;;8.35;3.75;;;8.40;99.90;;;;;;5050887;28;20132;-84
2024/03/21 08:33:15;;;;;;;11.65;4.38;;;8.40;99.90;;;;;;5047797;28;20041;-83
2024/03/21 08:35:41;;;;;;;11.07;3.80;;;8.40;99.90;;;;;;5066648;28;20051;-84
2024/03/21 08:38:07;;;;;;;12.55;4.47;;;8.50;99.90;;;;;;5048083;28;20101;-85
2024/03/21 08:40:33;;;;;;;12.65;3.90;;;8.50;99.90;;;;;;5049293;28;20123;-85
2024/03/21 08:42:59;;;;;;;9.00;3.45;;;8.50;99.90;;;;;;5049570;28;20433;-84
2024/03/21 08:45:25;;;;;;;13.02;4.22;;;8.60;99.90;;;;;;5047999;28;22132;-84
2024/03/21 08:47:51;;;;;;;13.52;4.00;;;8.60;99.90;;;;;;5062194;28;20040;-84
2024/03/21 08:50:17;;;;;;;9.20;3.53;;;8.60;99.90;;;;;;5048083;28;20404;-84
2024/03/21 08:52:43;;;;;;;13.07;4.50;;;8.60;99.90;;;;;;5046041;28;20044;-85
2024/03/21 08:55:09;;;;;;;10.98;3.58;;;8.70;99.90;;;;;;5060167;28;20136;-84
2024/03/21 08:57:35;;;;;;;12.88;4.35;;;8.70;99.90;;;;;;5044610;28;20036;-85
2024/03/21 09:00:03;;;;;;;10.13;4.03;;;8.70;99.90;;;;;;5049700;28;20044;-85
2024/03/21 09:02:29;;;;;;;11.85;3.88;;;8.80;99.90;;;;;;5049552;28;20044;-85
2024/03/21 09:04:55;;;;;;;10.90;3.95;;;8.80;99.90;;;;;;5062811;28;20144;-85
2024/03/21 09:07:20;;;;;;;11.15;4.47;;;8.90;99.90;;;;;;5045075;28;20144;-84
2024/03/21 09:09:46;;;;;;;13.05;4.97;;;8.80;99.90;;;;;;5051499;28;20056;-84
2024/03/21 09:12:12;;;;;;;11.40;4.80;;;8.80;99.90;;;;;;5063191;28;20459;-84
2024/03/21 09:14:38;;;;;;;14.77;5.07;;;8.80;99.90;;;;;;5061397;28;20407;-85
2024/03/21 09:17:04;;;;;;;10.38;4.05;;;8.80;99.90;;;;;;5059973;28;20037;-85
2024/03/21 09:19:30;;;;;;;10.85;4.65;;;8.80;99.90;;;;;;5063830;28;20044;-85
2024/03/21 09:21:56;;;;;;;10.65;4.32;;;8.80;99.90;;;;;;5062793;28;20045;-85
2024/03/21 09:24:23;;;;;;;9.75;4.28;;;8.70;99.90;;;;;;5046964;28;20040;-86
2024/03/21 09:26:49;;;;;;;10.52;4.10;;;8.70;99.90;;;;;;5048535;28;20558;-84
2024/03/21 09:29:15;;;;;;;12.93;4.25;;;8.70;99.90;;;;;;5064717;28;20048;-85
2024/03/21 09:31:40;;;;;;;13.80;4.50;;;8.70;99.90;;;;;;5063115;28;20039;-85
2024/03/21 09:34:07;;;;;;;12.50;3.78;;;8.80;99.90;;;;;;5081312;28;20048;-85
2024/03/21 09:36:32;;;;;;;9.55;3.90;;;8.80;99.90;;;;;;5049103;28;20037;-84
2024/03/21 09:38:58;;;;;;;8.68;3.65;;;8.90;99.90;;;;;;5065100;28;20051;-86
2024/03/21 09:41:24;;;;;;;8.52;3.30;;;8.90;99.90;;;;;;5049393;28;20484;-85
2024/03/21 09:43:50;;;;;;;9.65;3.72;;;8.90;99.90;;;;;;5046731;28;20053;-87
2024/03/21 09:46:17;;;;;;;11.40;3.65;;;9.00;99.90;;;;;;5079131;28;20514;-85
2024/03/21 09:48:46;;;;;;;12.32;4.03;;;9.00;99.90;;;;;;5045350;28;20040;-85
2024/03/21 09:51:21;;;;;;;12.85;3.85;;;9.00;99.90;;;;;;5049123;28;20048;-85
2024/03/21 09:53:48;;;;;;;14.35;4.75;;;9.00;99.90;;;;;;5061554;28;20064;-85
2024/03/21 09:56:16;;;;;;;9.90;3.83;;;9.00;99.90;;;;;;5046187;28;20044;-85
2024/03/21 09:58:43;;;;;;;8.27;2.83;;;9.00;99.90;;;;;;5050069;28;20041;-84
2024/03/21 10:01:23;;;;;;;6.45;3.03;;;9.00;99.90;;;;;;5045419;28;20036;-84
2024/03/21 10:03:57;;;;;;;6.40;2.80;;;8.90;99.90;;;;;;5061949;28;20052;-86
2024/03/21 10:06:24;;;;;;;8.02;3.03;;;8.90;99.90;;;;;;5063998;28;20049;-84
2024/03/21 10:08:51;;;;;;;9.98;3.03;;;8.90;99.90;;;;;;5059879;28;20055;-84
2024/03/21 10:11:17;;;;;;;8.10;2.90;;;9.00;99.90;;;;;;5065567;28;20040;-85
2024/03/21 10:13:43;;;;;;;7.80;3.25;;;9.00;99.90;;;;;;5041996;28;20486;-85
2024/03/21 10:16:14;;;;;;;8.70;3.75;;;8.90;99.90;;;;;;5065087;28;20131;-84
2024/03/21 10:18:43;;;;;;;7.25;3.47;;;9.00;99.90;;;;;;5059347;28;20146;-84
2024/03/21 10:21:14;;;;;;;9.30;3.30;;;9.10;99.90;;;;;;5063284;28;20066;-86
2024/03/21 10:23:41;;;;;;;11.55;4.22;;;9.10;99.90;;;;;;5045988;28;20500;-85
2024/03/21 10:26:17;;;;;;;8.95;2.97;;;9.10;99.90;;;;;;5064621;28;20730;-85
2024/03/21 10:28:44;;;;;;;6.95;3.00;;;9.10;99.90;;;;;;5046480;28;20515;-86
2024/03/21 10:31:15;;;;;;;9.73;3.90;;;9.20;99.90;;;;;;5046583;28;20131;-85
2024/03/21 10:33:45;;;;;;;8.52;2.90;;;9.20;99.90;;;;;;5045866;28;20467;-86
2024/03/21 10:36:14;;;;;;;7.25;3.15;;;9.30;99.90;;;;;;5049438;28;20139;-85
2024/03/21 10:38:45;;;;;;;14.53;4.30;;;9.30;99.90;;;;;;5062161;28;20065;-85
2024/03/21 10:41:18;;;;;;;;;;;9.30;99.90;;;;;;5047152;28;20392;-85
2024/03/21 10:43:47;;;;;;;10.13;3.83;;;9.20;99.90;;;;;;5047922;28;19927;-87
2024/03/21 10:46:14;;;;;;;9.70;3.55;;;9.20;99.90;;;;;;5046896;28;20047;-86
2024/03/21 10:48:40;;;;;;;20.50;3.45;;;9.20;99.90;;;;;;5064216;28;20048;-85
2024/03/21 10:51:17;;;;;;;8.68;3.47;;;9.40;99.90;;;;;;5064214;28;20047;-86
2024/03/21 10:53:59;;;;;;;9.48;3.72;;;9.30;99.90;;;;;;5063873;28;20043;-85
2024/03/21 10:56:36;;;;;;;11.90;3.95;;;9.40;99.90;;;;;;5061723;28;20052;-85
2024/03/21 10:59:02;;;;;;;9.40;3.15;;;9.40;99.90;;;;;;5043697;28;20049;-86
2024/03/21 11:01:39;;;;;;;8.93;3.40;;;9.40;99.90;;;;;;5050062;28;20044;-86
2024/03/21 11:04:06;;;;;;;9.20;3.67;;;9.50;99.90;;;;;;5046169;28;20126;-84
2024/03/21 11:06:36;;;;;;;8.98;3.85;;;9.50;99.90;;;;;;5071241;28;20507;-86
2024/03/21 11:09:03;;;;;;;10.63;4.22;;;9.50;99.90;;;;;;5050550;28;20041;-85
2024/03/21 11:11:30;;;;;;;15.32;4.57;;;9.50;99.90;;;;;;5047471;28;20500;-85
2024/03/21 11:14:10;;;;;;;13.73;5.03;;;9.50;99.90;;;;;;5052999;28;20411;-85
2024/03/21 11:16:40;;;;;;;11.55;5.50;;;9.60;99.90;;;;;;5051291;28;20122;-85
2024/03/21 11:19:06;;;;;;;8.73;4.20;;;9.50;99.90;;;;;;5049194;28;20053;-86
2024/03/21 11:21:32;;;;;;;9.20;3.97;;;9.50;99.90;;;;;;5049725;28;20059;-84
2024/03/21 11:23:58;;;;;;;7.82;3.60;;;9.50;99.90;;;;;;5067091;28;20671;-85
2024/03/21 11:26:25;;;;;;;13.75;4.45;;;9.40;99.90;;;;;;5081713;28;20045;-87
2024/03/21 11:28:51;;;;;;;8.07;4.03;;;9.40;99.90;;;;;;5065093;28;20045;-85
2024/03/21 11:31:28;;;;;;;10.30;4.72;;;9.50;99.90;;;;;;5064699;28;20052;-85
2024/03/21 11:33:54;;;;;;;11.40;4.60;;;9.50;99.90;;;;;;5052049;28;20044;-85
2024/03/21 11:36:22;;;;;;;8.65;4.50;;;9.50;99.90;;;;;;5049328;28;20041;-84
2024/03/21 11:38:48;;;;;;;9.75;4.15;;;9.50;99.90;;;;;;5067481;28;20040;-85
2024/03/21 11:41:21;;;;;;;8.95;4.90;;;9.50;99.90;;;;;;5065853;28;20033;-85
2024/03/21 11:43:52;;;;;;;10.32;4.13;;;9.50;99.90;;;;;;5066079;28;20044;-84
2024/03/21 11:46:21;;;;;;;7.40;4.20;;;9.50;99.90;;;;;;5068480;28;20051;-85
2024/03/21 11:49:09;;;;;;;9.65;4.22;;;9.50;99.90;;;;;;5062119;28;20086;-85
2024/03/21 11:51:36;;;;;;;9.15;4.30;;;9.40;99.90;;;;;;5083674;28;20052;-85
2024/03/21 11:54:03;;;;;;;10.27;4.82;;;9.40;99.90;;;;;;5048699;28;20098;-85
2024/03/21 11:56:30;;;;;;;9.55;4.32;;;9.40;99.90;;;;;;5063698;28;20132;-85
2024/03/21 11:58:56;;;;;;;8.15;4.43;;;9.40;99.90;;;;;;5064056;28;20040;-86
2024/03/21 12:01:22;;;;;;;8.90;4.47;;;9.40;99.90;;;;;;5067076;28;20396;-85
2024/03/21 12:03:48;;;;;;;8.57;4.50;;;9.40;99.90;;;;;;5065335;28;20040;-84
2024/03/21 12:06:13;;;;;;;10.52;5.18;;;9.40;99.90;;;;;;5064521;28;20102;-85
2024/03/21 12:08:39;;;;;;;8.13;5.18;;;9.40;99.90;;;;;;5066432;28;20085;-84
2024/03/21 12:11:14;;;;;;;10.70;4.88;;;9.40;99.90;;;;;;5079449;28;20186;-85
2024/03/21 12:13:43;;;;;;;11.18;5.55;;;9.40;99.90;;;;;;5064715;28;20511;-84
2024/03/21 12:16:14;;;;;;;11.25;5.43;;;9.50;99.90;;;;;;5064268;28;20404;-85
2024/03/21 12:18:40;;;;;;;8.85;5.13;;;9.40;99.90;;;;;;5045759;28;20051;-84
2024/03/21 12:21:18;;;;;;;7.22;5.20;;;9.40;99.90;;;;;;5047291;28;20041;-85
2024/03/21 12:23:48;;;;;;;8.02;4.90;;;9.40;99.90;;;;;;5049910;28;20059;-86
2024/03/21 12:26:15;;;;;;;8.15;4.35;;;9.40;99.90;;;;;;5062378;28;20040;-84
2024/03/21 12:28:42;;;;;;;8.75;4.47;;;9.40;99.90;;;;;;5051404;28;20435;-85
2024/03/21 12:31:11;;;;;;;7.82;4.20;;;9.30;99.90;;;;;;5041920;28;20049;-86
2024/03/21 12:33:40;;;;;;;11.07;5.43;;;9.40;99.90;;;;;;5048724;28;20634;-85
2024/03/21 12:36:06;;;;;;;11.20;5.22;;;9.50;99.90;;;;;;5046841;28;20045;-84
2024/03/21 12:38:32;;;;;;;7.97;4.90;;;9.40;99.90;;;;;;5063148;28;20032;-87
2024/03/21 12:40:59;;;;;;;9.60;5.40;;;9.40;99.90;;;;;;5044462;28;20051;-86
2024/03/21 12:43:25;;;;;;;10.75;5.57;;;9.40;99.90;;;;;;5049891;28;20040;-86
2024/03/21 12:45:55;;;;;;;10.38;5.07;;;9.40;99.90;;;;;;5065246;28;20045;-85
2024/03/21 12:48:24;;;;;;;11.27;5.70;;;9.50;99.90;;;;;;5049427;28;20119;-85